Terminal Aerodrome Forecast
Issued by NWS

Home | Current Version | Previous Version | Text Only | Print | Product List | Glossary On
Versions: 1 2 3 4 5 6 7 8 9 10 11 12 13
000
FTUS46 KLOX 172100 AAA
TAFPRB
TAF AMD
KPRB 172123Z 1721/1818 20015G25KT P6SM SCT100
     FM180300 21010KT P6SM SKC
     FM180900 VRB03KT P6SM SKC
     FM181400 VRB03KT 6SM BR BKN010
     FM181700 VRB05KT P6SM SCT010=

USA.gov is the U.S. government's official web portal to all federal, state and local government web resources and services.